Terminal Aerodrome Forecast
Issued by NWS Twin Cities, MN

Home | Current Version | Previous Version | Graphics & Text | Print | Product List | Glossary On
Versions: 1 2 3 4 5 6 7 8 9 10 11 12 13 14 15 16 17 18 19 20 21 22 23 24 25 26 27
000
FTUS43 KMPX 201400 AAA
TAFMSP
TAF AMD
KMSP 201457Z 2015/2118 08005KT P6SM FEW050 BKN100
     FM202100 08006KT P6SM SCT050 SCT250
     FM210300 09005KT P6SM VCSH SCT050 BKN100
     FM210700 12003KT P6SM BKN100
      TEMPO 2110/2113 5SM -SHRA BR
     FM211300 29007KT P6SM BKN110=

USA.gov is the U.S. government's official web portal to all federal, state and local government web resources and services.